Disclaimer

Please do not use the information listed here in-flight or in-navigation, as they are not provided to us by the airports but are provided by volunteers, so they might be outdated.

Search


Regions


Airport information page

Radio informations:
ADAMS TWR - 118.7 MHz
Ground (GND) - 121.9 MHz
ADAMS DEP - 128.85 MHz
Automatic Terminal Information Service (ATIS) - 132.725 MHz
ADAMS ARR - 128.85 MHz
ADAMS APP - 129.35 MHz

Airport informations:
Latitude: 13° 04' 28.57" N
Longitude: 059° 29' 32.84" W
Elevation: 169 feet - 52 meters
Operating hours: N/A
Operating agency: Civil government, landing fees and diplomatic clearance may be required
Timezone: UTC-4
Fuel: Unknown fuel type or whether there is any fuel.

Runway information:
09/27 - 11000 x 150 feet< - >3353 x 46 meters

Recent METARs:
TBPB 131900Z 09016KT 9999 VCSH SCT018 28/25 Q1011 NOSIG
TBPB 131900Z 09016KT 9999 VCSH SCT018 28/25 Q1011 NOSIG
TBPB 132000Z 10015KT 9999 SCT018 28/25 Q1011 NOSIG

Airport on the map: